sensor_id;sensor_type;location;lat;lon;timestamp;P1;durP1;ratioP1;P2;durP2;ratioP2
15340;SDS011;7770;52.158;5.372;2023-06-24T00:00:57;16.63;;;14.93;;
15340;SDS011;7770;52.158;5.372;2023-06-24T00:03:43;17.13;;;15.43;;
15340;SDS011;7770;52.158;5.372;2023-06-24T00:06:32;17.23;;;15.53;;
15340;SDS011;7770;52.158;5.372;2023-06-24T00:09:18;17.13;;;15.43;;
15340;SDS011;7770;52.158;5.372;2023-06-24T00:12:04;17.33;;;15.63;;
15340;SDS011;7770;52.158;5.372;2023-06-24T00:14:51;18.10;;;16.37;;
15340;SDS011;7770;52.158;5.372;2023-06-24T00:17:37;18.40;;;16.50;;
15340;SDS011;7770;52.158;5.372;2023-06-24T00:20:23;15.20;;;13.53;;
15340;SDS011;7770;52.158;5.372;2023-06-24T00:23:09;14.77;;;13.30;;
15340;SDS011;7770;52.158;5.372;2023-06-24T00:26:00;14.53;;;13.03;;
15340;SDS011;7770;52.158;5.372;2023-06-24T00:28:46;13.77;;;12.47;;
15340;SDS011;7770;52.158;5.372;2023-06-24T00:31:32;12.90;;;11.70;;
15340;SDS011;7770;52.158;5.372;2023-06-24T00:34:18;11.87;;;10.93;;
15340;SDS011;7770;52.158;5.372;2023-06-24T00:37:09;11.80;;;10.60;;
15340;SDS011;7770;52.158;5.372;2023-06-24T00:39:55;12.10;;;10.87;;
15340;SDS011;7770;52.158;5.372;2023-06-24T00:42:42;12.57;;;11.37;;
15340;SDS011;7770;52.158;5.372;2023-06-24T00:45:30;12.70;;;11.37;;
15340;SDS011;7770;52.158;5.372;2023-06-24T00:48:16;11.67;;;10.60;;
15340;SDS011;7770;52.158;5.372;2023-06-24T00:51:02;13.53;;;12.30;;
15340;SDS011;7770;52.158;5.372;2023-06-24T00:53:48;12.37;;;11.03;;
15340;SDS011;7770;52.158;5.372;2023-06-24T00:56:35;13.07;;;11.77;;
15340;SDS011;7770;52.158;5.372;2023-06-24T00:59:23;13.10;;;11.40;;
15340;SDS011;7770;52.158;5.372;2023-06-24T01:02:10;12.77;;;11.57;;
15340;SDS011;7770;52.158;5.372;2023-06-24T01:04:57;12.80;;;11.47;;
15340;SDS011;7770;52.158;5.372;2023-06-24T01:07:43;12.90;;;11.80;;
15340;SDS011;7770;52.158;5.372;2023-06-24T01:10:29;12.87;;;11.67;;
15340;SDS011;7770;52.158;5.372;2023-06-24T01:13:15;13.13;;;11.70;;
15340;SDS011;7770;52.158;5.372;2023-06-24T01:16:08;13.07;;;11.77;;
15340;SDS011;7770;52.158;5.372;2023-06-24T01:19:05;13.27;;;12.00;;
15340;SDS011;7770;52.158;5.372;2023-06-24T01:25:44;14.00;;;12.70;;
15340;SDS011;7770;52.158;5.372;2023-06-24T01:32:34;13.50;;;12.10;;
15340;SDS011;7770;52.158;5.372;2023-06-24T01:35:34;15.53;;;13.03;;
15340;SDS011;7770;52.158;5.372;2023-06-24T01:38:22;13.00;;;11.80;;
15340;SDS011;7770;52.158;5.372;2023-06-24T01:41:34;13.13;;;11.87;;
15340;SDS011;7770;52.158;5.372;2023-06-24T01:44:27;13.63;;;12.40;;
15340;SDS011;7770;52.158;5.372;2023-06-24T01:47:15;13.67;;;12.47;;
15340;SDS011;7770;52.158;5.372;2023-06-24T01:50:07;13.97;;;12.73;;
15340;SDS011;7770;52.158;5.372;2023-06-24T01:52:57;13.17;;;11.97;;
15340;SDS011;7770;52.158;5.372;2023-06-24T01:55:43;13.47;;;12.17;;
15340;SDS011;7770;52.158;5.372;2023-06-24T01:58:31;12.67;;;11.57;;
15340;SDS011;7770;52.158;5.372;2023-06-24T02:01:20;13.20;;;12.00;;
15340;SDS011;7770;52.158;5.372;2023-06-24T02:04:08;13.00;;;11.70;;
15340;SDS011;7770;52.158;5.372;2023-06-24T02:06:55;13.80;;;12.60;;
15340;SDS011;7770;52.158;5.372;2023-06-24T02:09:44;13.20;;;12.10;;
15340;SDS011;7770;52.158;5.372;2023-06-24T02:12:31;13.20;;;11.90;;
15340;SDS011;7770;52.158;5.372;2023-06-24T02:15:18;13.47;;;12.27;;
15340;SDS011;7770;52.158;5.372;2023-06-24T02:18:06;13.00;;;11.87;;
15340;SDS011;7770;52.158;5.372;2023-06-24T02:20:55;13.87;;;12.60;;
15340;SDS011;7770;52.158;5.372;2023-06-24T02:23:42;13.03;;;11.87;;
15340;SDS011;7770;52.158;5.372;2023-06-24T02:26:29;12.80;;;11.60;;
15340;SDS011;7770;52.158;5.372;2023-06-24T02:29:15;13.30;;;12.03;;
15340;SDS011;7770;52.158;5.372;2023-06-24T02:32:02;13.37;;;12.07;;
15340;SDS011;7770;52.158;5.372;2023-06-24T02:34:48;14.23;;;12.93;;
15340;SDS011;7770;52.158;5.372;2023-06-24T02:37:34;14.90;;;13.43;;
15340;SDS011;7770;52.158;5.372;2023-06-24T02:40:20;13.70;;;12.30;;
15340;SDS011;7770;52.158;5.372;2023-06-24T02:43:07;14.70;;;13.20;;
15340;SDS011;7770;52.158;5.372;2023-06-24T02:45:53;14.90;;;13.63;;
15340;SDS011;7770;52.158;5.372;2023-06-24T02:48:39;15.43;;;14.13;;
15340;SDS011;7770;52.158;5.372;2023-06-24T02:51:26;15.90;;;14.40;;
15340;SDS011;7770;52.158;5.372;2023-06-24T02:54:12;15.13;;;13.70;;
15340;SDS011;7770;52.158;5.372;2023-06-24T02:56:59;14.57;;;13.27;;
15340;SDS011;7770;52.158;5.372;2023-06-24T02:59:46;15.10;;;13.67;;
15340;SDS011;7770;52.158;5.372;2023-06-24T03:02:33;15.77;;;14.27;;
15340;SDS011;7770;52.158;5.372;2023-06-24T03:05:19;16.93;;;15.23;;
15340;SDS011;7770;52.158;5.372;2023-06-24T03:08:06;16.33;;;14.83;;
15340;SDS011;7770;52.158;5.372;2023-06-24T03:10:56;17.90;;;16.10;;
15340;SDS011;7770;52.158;5.372;2023-06-24T03:13:43;16.70;;;15.00;;
15340;SDS011;7770;52.158;5.372;2023-06-24T03:16:29;16.17;;;14.67;;
15340;SDS011;7770;52.158;5.372;2023-06-24T03:19:15;17.60;;;15.80;;
15340;SDS011;7770;52.158;5.372;2023-06-24T03:22:02;17.50;;;15.90;;
15340;SDS011;7770;52.158;5.372;2023-06-24T03:24:49;17.33;;;15.60;;
15340;SDS011;7770;52.158;5.372;2023-06-24T03:27:36;17.70;;;15.73;;
15340;SDS011;7770;52.158;5.372;2023-06-24T03:30:22;16.87;;;15.27;;
15340;SDS011;7770;52.158;5.372;2023-06-24T03:33:08;16.70;;;15.00;;
15340;SDS011;7770;52.158;5.372;2023-06-24T03:35:54;15.93;;;14.33;;
15340;SDS011;7770;52.158;5.372;2023-06-24T03:38:40;16.87;;;15.23;;
15340;SDS011;7770;52.158;5.372;2023-06-24T03:41:26;16.43;;;14.83;;
15340;SDS011;7770;52.158;5.372;2023-06-24T03:44:13;16.43;;;14.97;;
15340;SDS011;7770;52.158;5.372;2023-06-24T03:46:59;16.77;;;15.10;;
15340;SDS011;7770;52.158;5.372;2023-06-24T03:49:45;16.77;;;15.17;;
15340;SDS011;7770;52.158;5.372;2023-06-24T03:52:31;15.50;;;14.00;;
15340;SDS011;7770;52.158;5.372;2023-06-24T03:55:17;16.40;;;14.80;;
15340;SDS011;7770;52.158;5.372;2023-06-24T03:58:03;16.03;;;14.33;;
15340;SDS011;7770;52.158;5.372;2023-06-24T04:00:49;15.37;;;13.77;;
15340;SDS011;7770;52.158;5.372;2023-06-24T04:03:35;14.87;;;13.27;;
15340;SDS011;7770;52.158;5.372;2023-06-24T04:06:21;14.00;;;12.70;;
15340;SDS011;7770;52.158;5.372;2023-06-24T04:09:07;14.50;;;13.20;;
15340;SDS011;7770;52.158;5.372;2023-06-24T04:11:55;14.33;;;13.00;;
15340;SDS011;7770;52.158;5.372;2023-06-24T04:14:41;13.13;;;11.93;;
15340;SDS011;7770;52.158;5.372;2023-06-24T04:17:27;13.40;;;12.17;;
15340;SDS011;7770;52.158;5.372;2023-06-24T04:20:13;13.13;;;11.83;;
15340;SDS011;7770;52.158;5.372;2023-06-24T04:22:59;12.80;;;11.50;;
15340;SDS011;7770;52.158;5.372;2023-06-24T04:25:45;12.90;;;11.03;;
15340;SDS011;7770;52.158;5.372;2023-06-24T04:28:31;12.30;;;11.07;;
15340;SDS011;7770;52.158;5.372;2023-06-24T04:31:17;12.27;;;11.07;;
15340;SDS011;7770;52.158;5.372;2023-06-24T04:34:03;12.00;;;10.90;;
15340;SDS011;7770;52.158;5.372;2023-06-24T04:36:50;11.80;;;10.50;;
15340;SDS011;7770;52.158;5.372;2023-06-24T04:39:36;11.17;;;10.17;;
15340;SDS011;7770;52.158;5.372;2023-06-24T04:42:22;10.97;;;9.90;;
15340;SDS011;7770;52.158;5.372;2023-06-24T04:45:09;11.67;;;10.53;;
15340;SDS011;7770;52.158;5.372;2023-06-24T04:47:55;11.43;;;10.33;;
15340;SDS011;7770;52.158;5.372;2023-06-24T04:50:41;11.80;;;10.20;;
15340;SDS011;7770;52.158;5.372;2023-06-24T04:53:27;11.63;;;9.07;;
15340;SDS011;7770;52.158;5.372;2023-06-24T04:56:13;9.07;;;8.17;;
15340;SDS011;7770;52.158;5.372;2023-06-24T04:58:59;8.33;;;7.47;;
15340;SDS011;7770;52.158;5.372;2023-06-24T05:01:45;8.10;;;7.10;;
15340;SDS011;7770;52.158;5.372;2023-06-24T05:04:31;7.93;;;6.37;;
15340;SDS011;7770;52.158;5.372;2023-06-24T05:07:18;8.23;;;7.37;;
15340;SDS011;7770;52.158;5.372;2023-06-24T05:10:04;9.37;;;7.37;;
15340;SDS011;7770;52.158;5.372;2023-06-24T05:12:51;7.70;;;6.53;;
15340;SDS011;7770;52.158;5.372;2023-06-24T05:15:37;7.30;;;6.60;;
15340;SDS011;7770;52.158;5.372;2023-06-24T05:18:23;7.43;;;6.73;;
15340;SDS011;7770;52.158;5.372;2023-06-24T05:21:09;7.20;;;6.50;;
15340;SDS011;7770;52.158;5.372;2023-06-24T05:23:55;7.20;;;6.60;;
15340;SDS011;7770;52.158;5.372;2023-06-24T05:26:41;7.77;;;7.07;;
15340;SDS011;7770;52.158;5.372;2023-06-24T05:29:27;8.13;;;6.10;;
15340;SDS011;7770;52.158;5.372;2023-06-24T05:32:13;7.67;;;6.10;;
15340;SDS011;7770;52.158;5.372;2023-06-24T05:34:58;6.90;;;6.20;;
15340;SDS011;7770;52.158;5.372;2023-06-24T05:37:44;6.47;;;5.87;;
15340;SDS011;7770;52.158;5.372;2023-06-24T05:40:31;7.32;;;6.72;;
15340;SDS011;7770;52.158;5.372;2023-06-24T05:43:17;7.22;;;6.60;;
15340;SDS011;7770;52.158;5.372;2023-06-24T05:46:02;8.82;;;6.88;;
15340;SDS011;7770;52.158;5.372;2023-06-24T05:48:49;6.78;;;6.18;;
15340;SDS011;7770;52.158;5.372;2023-06-24T05:51:35;7.40;;;6.65;;
15340;SDS011;7770;52.158;5.372;2023-06-24T05:54:21;7.55;;;6.88;;
15340;SDS011;7770;52.158;5.372;2023-06-24T05:57:07;7.50;;;6.90;;
15340;SDS011;7770;52.158;5.372;2023-06-24T05:59:54;7.65;;;7.05;;
15340;SDS011;7770;52.158;5.372;2023-06-24T06:02:40;7.35;;;6.75;;
15340;SDS011;7770;52.158;5.372;2023-06-24T06:05:26;7.13;;;6.43;;
15340;SDS011;7770;52.158;5.372;2023-06-24T06:08:12;7.82;;;7.13;;
15340;SDS011;7770;52.158;5.372;2023-06-24T06:10:58;7.30;;;6.68;;
15340;SDS011;7770;52.158;5.372;2023-06-24T06:13:45;6.93;;;6.32;;
15340;SDS011;7770;52.158;5.372;2023-06-24T06:16:31;7.70;;;6.90;;
15340;SDS011;7770;52.158;5.372;2023-06-24T06:19:17;7.47;;;6.70;;
15340;SDS011;7770;52.158;5.372;2023-06-24T06:22:03;7.60;;;6.75;;
15340;SDS011;7770;52.158;5.372;2023-06-24T06:24:50;7.68;;;6.97;;
15340;SDS011;7770;52.158;5.372;2023-06-24T06:27:36;7.05;;;6.45;;
15340;SDS011;7770;52.158;5.372;2023-06-24T06:30:22;7.15;;;6.65;;
15340;SDS011;7770;52.158;5.372;2023-06-24T06:33:08;7.80;;;7.00;;
15340;SDS011;7770;52.158;5.372;2023-06-24T06:35:54;8.77;;;7.97;;
15340;SDS011;7770;52.158;5.372;2023-06-24T06:38:40;7.75;;;7.05;;
15340;SDS011;7770;52.158;5.372;2023-06-24T06:41:26;7.53;;;6.72;;
15340;SDS011;7770;52.158;5.372;2023-06-24T06:44:12;8.15;;;7.35;;
15340;SDS011;7770;52.158;5.372;2023-06-24T06:46:58;7.90;;;7.20;;
15340;SDS011;7770;52.158;5.372;2023-06-24T06:49:44;7.82;;;7.13;;
15340;SDS011;7770;52.158;5.372;2023-06-24T06:52:30;8.70;;;7.80;;
15340;SDS011;7770;52.158;5.372;2023-06-24T06:55:16;9.55;;;6.95;;
15340;SDS011;7770;52.158;5.372;2023-06-24T06:58:02;8.65;;;7.30;;
15340;SDS011;7770;52.158;5.372;2023-06-24T07:00:48;9.57;;;7.53;;
15340;SDS011;7770;52.158;5.372;2023-06-24T07:03:34;8.00;;;7.20;;
15340;SDS011;7770;52.158;5.372;2023-06-24T07:06:20;7.60;;;7.00;;
15340;SDS011;7770;52.158;5.372;2023-06-24T07:09:06;7.97;;;7.17;;
15340;SDS011;7770;52.158;5.372;2023-06-24T07:11:52;7.57;;;6.90;;
15340;SDS011;7770;52.158;5.372;2023-06-24T07:14:39;7.32;;;6.65;;
15340;SDS011;7770;52.158;5.372;2023-06-24T07:17:25;10.15;;;6.25;;
15340;SDS011;7770;52.158;5.372;2023-06-24T07:20:11;7.72;;;7.00;;
15340;SDS011;7770;52.158;5.372;2023-06-24T07:22:57;7.43;;;6.72;;
15340;SDS011;7770;52.158;5.372;2023-06-24T07:25:43;6.43;;;5.93;;
15340;SDS011;7770;52.158;5.372;2023-06-24T07:28:29;8.77;;;6.07;;
15340;SDS011;7770;52.158;5.372;2023-06-24T07:31:15;6.60;;;6.07;;
15340;SDS011;7770;52.158;5.372;2023-06-24T07:34:01;6.50;;;5.88;;
15340;SDS011;7770;52.158;5.372;2023-06-24T07:36:47;6.40;;;5.80;;
15340;SDS011;7770;52.158;5.372;2023-06-24T07:39:35;6.28;;;5.57;;
15340;SDS011;7770;52.158;5.372;2023-06-24T07:42:21;5.63;;;5.13;;
15340;SDS011;7770;52.158;5.372;2023-06-24T07:45:07;5.60;;;5.03;;
15340;SDS011;7770;52.158;5.372;2023-06-24T07:47:54;7.65;;;5.35;;
15340;SDS011;7770;52.158;5.372;2023-06-24T07:50:40;6.40;;;5.50;;
15340;SDS011;7770;52.158;5.372;2023-06-24T07:53:26;5.72;;;5.22;;
15340;SDS011;7770;52.158;5.372;2023-06-24T07:56:12;4.90;;;4.50;;
15340;SDS011;7770;52.158;5.372;2023-06-24T07:58:58;5.78;;;5.18;;
15340;SDS011;7770;52.158;5.372;2023-06-24T08:01:44;5.90;;;4.45;;
15340;SDS011;7770;52.158;5.372;2023-06-24T08:04:30;9.25;;;5.15;;
15340;SDS011;7770;52.158;5.372;2023-06-24T08:07:16;5.00;;;4.60;;
15340;SDS011;7770;52.158;5.372;2023-06-24T08:10:02;4.70;;;4.30;;
15340;SDS011;7770;52.158;5.372;2023-06-24T08:12:49;5.30;;;4.80;;
15340;SDS011;7770;52.158;5.372;2023-06-24T08:15:35;6.90;;;4.60;;
15340;SDS011;7770;52.158;5.372;2023-06-24T08:18:21;5.10;;;4.63;;
15340;SDS011;7770;52.158;5.372;2023-06-24T08:21:07;5.90;;;4.57;;
15340;SDS011;7770;52.158;5.372;2023-06-24T08:23:52;5.40;;;4.72;;
15340;SDS011;7770;52.158;5.372;2023-06-24T08:26:39;5.25;;;4.82;;
15340;SDS011;7770;52.158;5.372;2023-06-24T08:29:25;5.13;;;4.72;;
15340;SDS011;7770;52.158;5.372;2023-06-24T08:32:10;5.18;;;4.78;;
15340;SDS011;7770;52.158;5.372;2023-06-24T08:34:56;6.07;;;5.15;;
15340;SDS011;7770;52.158;5.372;2023-06-24T08:37:42;6.28;;;5.15;;
15340;SDS011;7770;52.158;5.372;2023-06-24T08:40:28;5.70;;;5.20;;
15340;SDS011;7770;52.158;5.372;2023-06-24T08:43:15;5.38;;;4.88;;
15340;SDS011;7770;52.158;5.372;2023-06-24T08:46:01;7.25;;;5.43;;
15340;SDS011;7770;52.158;5.372;2023-06-24T08:48:48;5.65;;;5.15;;
15340;SDS011;7770;52.158;5.372;2023-06-24T08:51:35;5.65;;;5.15;;
15340;SDS011;7770;52.158;5.372;2023-06-24T08:54:27;6.20;;;5.70;;
15340;SDS011;7770;52.158;5.372;2023-06-24T08:57:15;6.50;;;5.97;;
15340;SDS011;7770;52.158;5.372;2023-06-24T09:00:03;5.95;;;5.40;;
15340;SDS011;7770;52.158;5.372;2023-06-24T09:02:56;6.88;;;5.40;;
15340;SDS011;7770;52.158;5.372;2023-06-24T09:05:42;5.60;;;5.10;;
15340;SDS011;7770;52.158;5.372;2023-06-24T09:08:29;6.18;;;5.65;;
15340;SDS011;7770;52.158;5.372;2023-06-24T09:11:15;6.35;;;5.47;;
15340;SDS011;7770;52.158;5.372;2023-06-24T09:14:08;5.47;;;4.93;;
15340;SDS011;7770;52.158;5.372;2023-06-24T09:16:58;6.05;;;5.55;;
15340;SDS011;7770;52.158;5.372;2023-06-24T09:19:51;7.63;;;5.38;;
15340;SDS011;7770;52.158;5.372;2023-06-24T09:22:39;5.80;;;5.25;;
15340;SDS011;7770;52.158;5.372;2023-06-24T09:25:27;5.93;;;5.43;;
15340;SDS011;7770;52.158;5.372;2023-06-24T09:28:13;6.20;;;5.60;;
15340;SDS011;7770;52.158;5.372;2023-06-24T09:31:06;6.10;;;5.50;;
15340;SDS011;7770;52.158;5.372;2023-06-24T09:33:59;6.32;;;5.82;;
15340;SDS011;7770;52.158;5.372;2023-06-24T09:36:45;6.65;;;5.97;;
15340;SDS011;7770;52.158;5.372;2023-06-24T09:39:39;6.70;;;6.10;;
15340;SDS011;7770;52.158;5.372;2023-06-24T09:42:25;6.18;;;5.68;;
15340;SDS011;7770;52.158;5.372;2023-06-24T09:45:12;6.13;;;5.63;;
15340;SDS011;7770;52.158;5.372;2023-06-24T09:47:58;6.53;;;6.03;;
15340;SDS011;7770;52.158;5.372;2023-06-24T09:50:44;6.53;;;5.93;;
15340;SDS011;7770;52.158;5.372;2023-06-24T09:53:32;6.57;;;5.97;;
15340;SDS011;7770;52.158;5.372;2023-06-24T09:56:20;6.50;;;5.68;;
15340;SDS011;7770;52.158;5.372;2023-06-24T09:59:07;6.13;;;5.53;;
15340;SDS011;7770;52.158;5.372;2023-06-24T10:01:53;6.68;;;6.07;;
15340;SDS011;7770;52.158;5.372;2023-06-24T10:04:40;7.80;;;6.30;;
15340;SDS011;7770;52.158;5.372;2023-06-24T10:07:27;6.85;;;6.25;;
15340;SDS011;7770;52.158;5.372;2023-06-24T10:10:14;6.82;;;6.22;;
15340;SDS011;7770;52.158;5.372;2023-06-24T10:13:00;6.75;;;6.15;;
15340;SDS011;7770;52.158;5.372;2023-06-24T10:15:46;6.68;;;6.15;;
15340;SDS011;7770;52.158;5.372;2023-06-24T10:18:34;7.30;;;6.65;;
15340;SDS011;7770;52.158;5.372;2023-06-24T10:21:24;7.07;;;6.47;;
15340;SDS011;7770;52.158;5.372;2023-06-24T10:24:31;7.07;;;6.47;;
15340;SDS011;7770;52.158;5.372;2023-06-24T10:27:23;7.10;;;6.47;;
15340;SDS011;7770;52.158;5.372;2023-06-24T10:30:16;7.55;;;6.57;;
15340;SDS011;7770;52.158;5.372;2023-06-24T10:33:12;8.02;;;7.32;;
15340;SDS011;7770;52.158;5.372;2023-06-24T10:36:00;8.18;;;7.38;;
15340;SDS011;7770;52.158;5.372;2023-06-24T10:38:54;9.13;;;8.32;;
15340;SDS011;7770;52.158;5.372;2023-06-24T10:41:41;7.78;;;7.07;;
15340;SDS011;7770;52.158;5.372;2023-06-24T10:44:27;7.53;;;6.82;;
15340;SDS011;7770;52.158;5.372;2023-06-24T10:47:13;6.97;;;6.10;;
15340;SDS011;7770;52.158;5.372;2023-06-24T10:49:59;7.55;;;6.85;;
15340;SDS011;7770;52.158;5.372;2023-06-24T10:52:49;8.50;;;6.95;;
15340;SDS011;7770;52.158;5.372;2023-06-24T10:55:41;6.88;;;6.38;;
15340;SDS011;7770;52.158;5.372;2023-06-24T10:58:29;7.78;;;7.05;;
15340;SDS011;7770;52.158;5.372;2023-06-24T11:01:15;9.07;;;7.47;;
15340;SDS011;7770;52.158;5.372;2023-06-24T11:04:05;7.28;;;6.78;;
15340;SDS011;7770;52.158;5.372;2023-06-24T11:07:00;6.88;;;6.28;;
15340;SDS011;7770;52.158;5.372;2023-06-24T11:12:38;7.35;;;6.65;;
15340;SDS011;7770;52.158;5.372;2023-06-24T11:15:25;7.35;;;6.72;;
15340;SDS011;7770;52.158;5.372;2023-06-24T11:18:11;7.70;;;7.00;;
15340;SDS011;7770;52.158;5.372;2023-06-24T11:20:57;8.48;;;7.70;;
15340;SDS011;7770;52.158;5.372;2023-06-24T11:23:43;8.90;;;7.55;;
15340;SDS011;7770;52.158;5.372;2023-06-24T11:26:30;7.95;;;7.20;;
15340;SDS011;7770;52.158;5.372;2023-06-24T11:29:17;7.90;;;7.20;;
15340;SDS011;7770;52.158;5.372;2023-06-24T11:32:06;8.40;;;7.65;;
15340;SDS011;7770;52.158;5.372;2023-06-24T11:34:54;8.27;;;7.40;;
15340;SDS011;7770;52.158;5.372;2023-06-24T11:37:46;10.68;;;7.90;;
15340;SDS011;7770;52.158;5.372;2023-06-24T11:40:33;8.40;;;7.70;;
15340;SDS011;7770;52.158;5.372;2023-06-24T11:43:19;9.25;;;8.25;;
15340;SDS011;7770;52.158;5.372;2023-06-24T11:46:05;8.25;;;7.50;;
15340;SDS011;7770;52.158;5.372;2023-06-24T11:48:52;9.55;;;7.90;;
15340;SDS011;7770;52.158;5.372;2023-06-24T11:51:48;9.60;;;8.70;;
15340;SDS011;7770;52.158;5.372;2023-06-24T11:54:40;8.80;;;8.00;;
15340;SDS011;7770;52.158;5.372;2023-06-24T12:00:45;8.32;;;7.63;;
15340;SDS011;7770;52.158;5.372;2023-06-24T12:03:32;8.82;;;7.57;;
15340;SDS011;7770;52.158;5.372;2023-06-24T12:06:19;8.18;;;7.25;;
15340;SDS011;7770;52.158;5.372;2023-06-24T12:09:05;9.43;;;8.50;;
15340;SDS011;7770;52.158;5.372;2023-06-24T12:11:51;9.13;;;8.25;;
15340;SDS011;7770;52.158;5.372;2023-06-24T12:14:37;10.45;;;8.27;;
15340;SDS011;7770;52.158;5.372;2023-06-24T12:17:24;9.38;;;8.48;;
15340;SDS011;7770;52.158;5.372;2023-06-24T12:20:10;9.50;;;8.23;;
15340;SDS011;7770;52.158;5.372;2023-06-24T12:22:56;8.88;;;8.02;;
15340;SDS011;7770;52.158;5.372;2023-06-24T12:25:42;9.10;;;8.20;;
15340;SDS011;7770;52.158;5.372;2023-06-24T12:28:28;9.30;;;8.40;;
15340;SDS011;7770;52.158;5.372;2023-06-24T12:31:14;9.75;;;8.55;;
15340;SDS011;7770;52.158;5.372;2023-06-24T12:34:00;9.80;;;8.80;;
15340;SDS011;7770;52.158;5.372;2023-06-24T12:36:47;9.07;;;8.27;;
15340;SDS011;7770;52.158;5.372;2023-06-24T12:39:33;9.52;;;8.68;;
15340;SDS011;7770;52.158;5.372;2023-06-24T12:42:19;8.88;;;8.13;;
15340;SDS011;7770;52.158;5.372;2023-06-24T12:45:05;8.52;;;7.80;;
15340;SDS011;7770;52.158;5.372;2023-06-24T12:47:51;8.35;;;7.28;;
15340;SDS011;7770;52.158;5.372;2023-06-24T12:50:37;7.82;;;7.13;;
15340;SDS011;7770;52.158;5.372;2023-06-24T12:53:24;8.50;;;6.85;;
15340;SDS011;7770;52.158;5.372;2023-06-24T12:56:10;7.50;;;6.85;;
15340;SDS011;7770;52.158;5.372;2023-06-24T12:58:55;8.00;;;7.18;;
15340;SDS011;7770;52.158;5.372;2023-06-24T13:01:41;7.95;;;7.20;;
15340;SDS011;7770;52.158;5.372;2023-06-24T13:04:30;8.27;;;7.30;;
15340;SDS011;7770;52.158;5.372;2023-06-24T13:07:16;7.20;;;6.60;;
15340;SDS011;7770;52.158;5.372;2023-06-24T13:10:02;7.53;;;6.78;;
15340;SDS011;7770;52.158;5.372;2023-06-24T13:12:51;7.80;;;7.00;;
15340;SDS011;7770;52.158;5.372;2023-06-24T13:15:37;7.95;;;7.15;;
15340;SDS011;7770;52.158;5.372;2023-06-24T13:18:23;8.10;;;7.13;;
15340;SDS011;7770;52.158;5.372;2023-06-24T13:21:09;7.30;;;6.60;;
15340;SDS011;7770;52.158;5.372;2023-06-24T13:23:55;7.13;;;6.60;;
15340;SDS011;7770;52.158;5.372;2023-06-24T13:26:41;7.13;;;6.53;;
15340;SDS011;7770;52.158;5.372;2023-06-24T13:29:27;7.10;;;6.50;;
15340;SDS011;7770;52.158;5.372;2023-06-24T13:32:13;7.35;;;6.60;;
15340;SDS011;7770;52.158;5.372;2023-06-24T13:34:59;7.32;;;6.72;;
15340;SDS011;7770;52.158;5.372;2023-06-24T13:37:45;7.78;;;7.10;;
15340;SDS011;7770;52.158;5.372;2023-06-24T13:40:31;7.32;;;6.70;;
15340;SDS011;7770;52.158;5.372;2023-06-24T13:43:17;8.05;;;7.20;;
15340;SDS011;7770;52.158;5.372;2023-06-24T13:46:03;7.65;;;6.93;;
15340;SDS011;7770;52.158;5.372;2023-06-24T13:48:49;8.75;;;7.22;;
15340;SDS011;7770;52.158;5.372;2023-06-24T13:51:36;6.82;;;6.22;;
15340;SDS011;7770;52.158;5.372;2023-06-24T13:54:22;8.35;;;6.68;;
15340;SDS011;7770;52.158;5.372;2023-06-24T13:57:08;7.15;;;6.55;;
15340;SDS011;7770;52.158;5.372;2023-06-24T13:59:54;7.28;;;6.65;;
15340;SDS011;7770;52.158;5.372;2023-06-24T14:02:40;7.75;;;7.13;;
15340;SDS011;7770;52.158;5.372;2023-06-24T14:05:26;8.10;;;6.68;;
15340;SDS011;7770;52.158;5.372;2023-06-24T14:08:12;8.18;;;7.47;;
15340;SDS011;7770;52.158;5.372;2023-06-24T14:10:58;7.68;;;6.97;;
15340;SDS011;7770;52.158;5.372;2023-06-24T14:13:45;7.57;;;6.78;;
15340;SDS011;7770;52.158;5.372;2023-06-24T14:16:31;9.77;;;8.77;;
15340;SDS011;7770;52.158;5.372;2023-06-24T14:19:17;7.57;;;6.88;;
15340;SDS011;7770;52.158;5.372;2023-06-24T14:22:03;7.57;;;6.78;;
15340;SDS011;7770;52.158;5.372;2023-06-24T14:24:51;7.05;;;6.45;;
15340;SDS011;7770;52.158;5.372;2023-06-24T14:27:37;8.27;;;7.47;;
15340;SDS011;7770;52.158;5.372;2023-06-24T14:30:22;7.93;;;6.70;;
15340;SDS011;7770;52.158;5.372;2023-06-24T14:33:09;8.00;;;7.30;;
15340;SDS011;7770;52.158;5.372;2023-06-24T14:35:55;7.93;;;7.22;;
15340;SDS011;7770;52.158;5.372;2023-06-24T14:38:41;7.78;;;7.07;;
15340;SDS011;7770;52.158;5.372;2023-06-24T14:41:28;7.97;;;7.10;;
15340;SDS011;7770;52.158;5.372;2023-06-24T14:44:14;8.23;;;7.32;;
15340;SDS011;7770;52.158;5.372;2023-06-24T14:47:00;6.93;;;6.43;;
15340;SDS011;7770;52.158;5.372;2023-06-24T14:49:46;7.45;;;6.82;;
15340;SDS011;7770;52.158;5.372;2023-06-24T14:52:32;7.22;;;6.55;;
15340;SDS011;7770;52.158;5.372;2023-06-24T14:55:18;9.70;;;7.53;;
15340;SDS011;7770;52.158;5.372;2023-06-24T14:58:04;7.80;;;7.00;;
15340;SDS011;7770;52.158;5.372;2023-06-24T15:00:50;8.02;;;7.20;;
15340;SDS011;7770;52.158;5.372;2023-06-24T15:03:36;9.02;;;6.97;;
15340;SDS011;7770;52.158;5.372;2023-06-24T15:06:22;7.47;;;6.88;;
15340;SDS011;7770;52.158;5.372;2023-06-24T15:09:08;8.18;;;7.15;;
15340;SDS011;7770;52.158;5.372;2023-06-24T15:11:54;8.07;;;7.35;;
15340;SDS011;7770;52.158;5.372;2023-06-24T15:14:40;7.85;;;7.25;;
15340;SDS011;7770;52.158;5.372;2023-06-24T15:17:26;8.75;;;7.95;;
15340;SDS011;7770;52.158;5.372;2023-06-24T15:20:12;7.43;;;6.82;;
15340;SDS011;7770;52.158;5.372;2023-06-24T15:22:58;8.23;;;7.32;;
15340;SDS011;7770;52.158;5.372;2023-06-24T15:25:44;8.73;;;6.80;;
15340;SDS011;7770;52.158;5.372;2023-06-24T15:28:30;7.47;;;6.78;;
15340;SDS011;7770;52.158;5.372;2023-06-24T15:31:16;7.70;;;7.10;;
15340;SDS011;7770;52.158;5.372;2023-06-24T15:34:02;8.10;;;7.35;;
15340;SDS011;7770;52.158;5.372;2023-06-24T15:36:48;7.65;;;7.03;;
15340;SDS011;7770;52.158;5.372;2023-06-24T15:39:34;7.93;;;7.20;;
15340;SDS011;7770;52.158;5.372;2023-06-24T15:42:20;8.98;;;8.07;;
15340;SDS011;7770;52.158;5.372;2023-06-24T15:45:06;8.05;;;7.32;;
15340;SDS011;7770;52.158;5.372;2023-06-24T15:47:53;9.02;;;8.13;;
15340;SDS011;7770;52.158;5.372;2023-06-24T15:50:39;9.15;;;8.30;;
15340;SDS011;7770;52.158;5.372;2023-06-24T15:53:25;8.77;;;7.97;;
15340;SDS011;7770;52.158;5.372;2023-06-24T15:56:11;7.82;;;7.22;;
15340;SDS011;7770;52.158;5.372;2023-06-24T15:58:57;8.32;;;7.63;;
15340;SDS011;7770;52.158;5.372;2023-06-24T16:01:43;8.43;;;7.60;;
15340;SDS011;7770;52.158;5.372;2023-06-24T16:04:29;9.30;;;8.50;;
15340;SDS011;7770;52.158;5.372;2023-06-24T16:07:16;9.40;;;8.60;;
15340;SDS011;7770;52.158;5.372;2023-06-24T16:10:03;9.52;;;8.68;;
15340;SDS011;7770;52.158;5.372;2023-06-24T16:12:50;10.02;;;8.57;;
15340;SDS011;7770;52.158;5.372;2023-06-24T16:15:36;11.68;;;9.40;;
15340;SDS011;7770;52.158;5.372;2023-06-24T16:18:22;12.18;;;10.50;;
15340;SDS011;7770;52.158;5.372;2023-06-24T16:21:08;13.13;;;10.07;;
15340;SDS011;7770;52.158;5.372;2023-06-24T16:23:54;11.73;;;10.65;;
15340;SDS011;7770;52.158;5.372;2023-06-24T16:26:41;11.00;;;9.90;;
15340;SDS011;7770;52.158;5.372;2023-06-24T16:29:27;13.98;;;11.93;;
15340;SDS011;7770;52.158;5.372;2023-06-24T16:32:13;13.00;;;11.70;;
15340;SDS011;7770;52.158;5.372;2023-06-24T16:34:59;13.15;;;11.50;;
15340;SDS011;7770;52.158;5.372;2023-06-24T16:37:45;13.00;;;11.70;;
15340;SDS011;7770;52.158;5.372;2023-06-24T16:40:31;11.82;;;10.70;;
15340;SDS011;7770;52.158;5.372;2023-06-24T16:43:17;12.40;;;11.20;;
15340;SDS011;7770;52.158;5.372;2023-06-24T16:46:03;11.82;;;10.63;;
15340;SDS011;7770;52.158;5.372;2023-06-24T16:48:49;12.43;;;10.55;;
15340;SDS011;7770;52.158;5.372;2023-06-24T16:51:35;11.63;;;10.40;;
15340;SDS011;7770;52.158;5.372;2023-06-24T16:54:21;13.55;;;10.52;;
15340;SDS011;7770;52.158;5.372;2023-06-24T16:57:09;11.43;;;10.32;;
15340;SDS011;7770;52.158;5.372;2023-06-24T16:59:55;10.95;;;9.82;;
15340;SDS011;7770;52.158;5.372;2023-06-24T17:02:41;11.77;;;10.57;;
15340;SDS011;7770;52.158;5.372;2023-06-24T17:05:27;12.43;;;10.88;;